KATY/ATY METAR and TAF weather

Enter ICAO airport designator
Station Type Date Time Source
KATY METAR 2019/04/19 21:53 UTC NOAA

KATY 192153Z AUTO 22012KT 10SM CLR 15/03 A2991 RMK AO2 SLP138 T01500033


Station Type Date Time Source
KATY Decoded METAR 2019/04/19 21:53 UTC NOAA

WATERTOWN MUNICIPAL AIRPORT, SD, United States (KATY) 44-54N 097-09W 532M
Apr 19, 2019 - 05:53 PM EDT / 2019.04.19 2153 UTC
Wind: from the SW (220 degrees) at 14 MPH (12 KT):0
Visibility: 10 mile(s):0
Sky conditions: clear
Temperature: 59.0 F (15.0 C)
Dew Point: 37.9 F (3.3 C)
Relative Humidity: 45%
Pressure (altimeter): 29.91 in. Hg (1012 hPa)
ob: KATY 192153Z AUTO 22012KT 10SM CLR 15/03 A2991 RMK AO2 SLP138 T01500033
cycle: 22

Station Type Date Time Source
KATY TAF 2019/04/19 18:27 UTC NOAA

TAF KATY 191724Z 1918/2018 22011KT P6SM FEW250
FM192000 22012G18KT P6SM FEW250
FM192300 20011KT P6SM FEW250
FM201600 20011KT P6SM SKC

Example: see airport list